Time;durP1;ratioP1;P1;durP2;ratioP2;P2;SDS_P1;SDS_P2;PMS_P1;PMS_P2;Temp;Humidity;BMP_temperature;BMP_pressure;BME280_temperature;BME280_humidity;BME280_pressure;Samples;Min_cycle;Max_cycle;Signal;HPM_P1;HPM_P2
2022/05/19 00:02:23;;;;;;;4.78;2.50;;;;;;;19.07;91.35;100289.56;4974668;28;20058;-68
2022/05/19 00:04:49;;;;;;;6.65;2.78;;;;;;;19.07;91.71;100301.22;4974814;28;20035;-68
2022/05/19 00:07:15;;;;;;;5.93;2.85;;;;;;;19.10;91.75;100302.84;4973077;28;20055;-67
2022/05/19 00:09:41;;;;;;;4.88;2.70;;;;;;;19.08;92.34;100297.53;4972155;28;20625;-69
2022/05/19 00:12:10;;;;;;;7.15;2.95;;;;;;;19.03;92.55;100293.38;4975231;28;20054;-69
2022/05/19 00:14:36;;;;;;;5.60;2.85;;;;;;;18.99;92.60;100302.66;4956295;28;20034;-67
2022/05/19 00:17:02;;;;;;;4.80;2.83;;;;;;;18.97;92.66;100304.56;4972007;28;20518;-67
2022/05/19 00:19:27;;;;;;;6.30;3.00;;;;;;;18.95;92.49;100303.78;4973235;28;20437;-67
2022/05/19 00:21:53;;;;;;;5.57;3.35;;;;;;;18.94;91.81;100305.63;4974264;28;20033;-68
2022/05/19 00:24:18;;;;;;;5.38;2.95;;;;;;;18.90;91.57;100300.50;4974485;28;20030;-67
2022/05/19 00:26:44;;;;;;;5.40;2.90;;;;;;;18.89;91.83;100301.47;4989947;28;20038;-67
2022/05/19 00:29:10;;;;;;;5.28;3.15;;;;;;;18.85;91.66;100305.31;4993492;28;20418;-67
2022/05/19 00:31:36;;;;;;;6.68;2.83;;;;;;;18.84;90.88;100299.06;4990628;28;20037;-67
2022/05/19 00:34:02;;;;;;;5.50;2.80;;;;;;;18.80;91.25;100307.44;4992874;28;20026;-68
2022/05/19 00:36:29;;;;;;;5.03;2.63;;;;;;;18.80;91.80;100296.66;4993985;28;20131;-68
2022/05/19 00:38:54;;;;;;;5.35;3.00;;;;;;;18.79;91.57;100293.09;4993843;28;20417;-67
2022/05/19 00:41:21;;;;;;;5.93;2.97;;;;;;;18.72;92.20;100298.94;4993359;28;20042;-68
2022/05/19 00:43:59;;;;;;;5.18;3.13;;;;;;;18.68;92.29;100302.81;4992605;28;20560;-68
2022/05/19 00:46:31;;;;;;;4.80;2.90;;;;;;;18.68;92.34;100300.97;4983054;28;20481;-68
2022/05/19 00:49:11;;;;;;;5.40;2.88;;;;;;;18.68;92.12;100297.41;4973380;28;20042;-68
2022/05/19 00:51:47;;;;;;;6.03;3.10;;;;;;;18.64;92.67;100290.47;4973267;28;20039;-68
2022/05/19 00:54:17;;;;;;;6.95;3.35;;;;;;;18.63;92.51;100288.75;4974012;28;20106;-68
2022/05/19 00:56:56;;;;;;;5.38;3.05;;;;;;;18.55;92.87;100299.13;4974166;28;20492;-68
2022/05/19 00:59:31;;;;;;;7.53;2.92;;;;;;;18.54;93.45;100300.06;4973686;28;20042;-68
2022/05/19 01:01:57;;;;;;;4.97;3.00;;;;;;;18.33;93.85;100280.66;4972403;28;20110;-68
2022/05/19 01:04:38;;;;;;;5.88;3.00;;;;;;;18.34;94.41;100296.72;4976997;28;20026;-68
2022/05/19 01:07:09;;;;;;;4.40;3.08;;;;;;;18.43;94.31;100300.75;4955672;28;20029;-68
2022/05/19 01:09:35;;;;;;;6.10;3.33;;;;;;;18.41;94.32;100301.78;4991541;28;20022;-68
2022/05/19 01:12:06;;;;;;;5.68;2.63;;;;;;;18.40;94.10;100302.75;4993152;28;20030;-68
2022/05/19 01:14:32;;;;;;;4.63;2.67;;;;;;;18.33;94.26;100297.66;4993314;28;20545;-68
2022/05/19 01:16:58;;;;;;;5.88;3.08;;;;;;;18.28;94.31;100298.91;4973064;28;20041;-68
2022/05/19 01:19:57;;;;;;;6.25;3.00;;;;;;;18.14;94.67;100296.16;4953866;29;20479;-68
2022/05/19 01:22:36;;;;;;;5.63;2.95;;;;;;;18.16;95.20;100295.13;4951734;29;20118;-69
2022/05/19 01:25:14;;;;;;;8.20;3.35;;;;;;;18.02;95.47;100295.06;4953680;29;20031;-69
2022/05/19 01:27:39;;;;;;;5.00;2.88;;;;;;;17.91;97.36;100294.81;4954072;29;20744;-68
2022/05/19 01:30:07;;;;;;;6.18;2.90;;;;;;;17.76;97.42;100292.16;4954423;28;20039;-69
2022/05/19 01:32:33;;;;;;;8.25;3.65;;;;;;;17.92;97.15;100309.16;4971821;28;20486;-68
2022/05/19 01:34:59;;;;;;;5.25;2.85;;;;;;;17.87;96.57;100304.06;4973333;28;20029;-68
2022/05/19 01:37:25;;;;;;;7.00;3.42;;;;;;;17.71;97.34;100289.72;4972375;28;20114;-68
2022/05/19 01:40:00;;;;;;;5.40;3.13;;;;;;;17.59;97.31;100298.50;4970574;28;20023;-68
2022/05/19 01:42:41;;;;;;;4.82;2.95;;;;;;;17.55;98.06;100296.06;4969721;28;20412;-68
2022/05/19 01:45:29;;;;;;;6.97;2.85;;;;;;;17.47;98.18;100293.81;4970834;28;20108;-68
2022/05/19 01:48:06;;;;;;;5.47;3.05;;;;;;;17.45;98.62;100289.41;4958201;28;20174;-68
2022/05/19 01:50:32;;;;;;;4.55;2.67;;;;;;;17.38;98.45;100283.53;4950572;29;20027;-69
2022/05/19 01:53:40;;;;;;;4.30;2.90;;;;;;;17.28;98.72;100271.53;4952822;29;20035;-69
2022/05/19 01:56:39;;;;;;;6.28;2.88;;;;;;;17.40;99.35;100278.94;4955224;28;20047;-68
2022/05/19 01:59:43;;;;;;;4.72;2.60;;;;;;;17.48;98.99;100284.78;4991523;28;20391;-68
2022/05/19 02:02:37;;;;;;;5.30;2.78;;;;;;;17.44;98.70;100280.50;4992133;28;20514;-68
2022/05/19 02:05:09;;;;;;;5.60;2.88;;;;;;;17.38;98.83;100272.75;4980077;28;20041;-68
2022/05/19 02:07:37;;;;;;;5.25;3.10;;;;;;;17.43;98.61;100286.81;4992270;28;20033;-70
2022/05/19 02:10:10;;;;;;;4.72;2.80;;;;;;;17.39;98.65;100287.09;4991946;28;20367;-70
2022/05/19 02:12:37;;;;;;;7.65;3.25;;;;;;;17.28;99.37;100293.03;4992384;28;20038;-71
2022/05/19 02:15:10;;;;;;;5.13;3.20;;;;;;;17.31;98.67;100300.09;4972567;28;20085;-70
2022/05/19 02:17:36;;;;;;;8.23;2.88;;;;;;;17.30;98.65;100301.91;4960565;28;20050;-70
2022/05/19 02:20:09;;;;;;;7.25;3.28;;;;;;;17.28;98.31;100306.50;4960300;28;20022;-70
2022/05/19 02:22:38;;;;;;;6.80;3.30;;;;;;;17.22;98.98;100304.16;4954960;28;20402;-70
2022/05/19 02:25:25;;;;;;;6.18;3.05;;;;;;;17.19;99.35;100307.00;4974771;28;20034;-69
2022/05/19 02:27:57;;;;;;;6.00;3.22;;;;;;;17.19;99.54;100308.81;4972744;28;20450;-69
2022/05/19 02:30:28;;;;;;;6.28;3.60;;;;;;;17.16;100.00;100312.56;4972487;28;20110;-70
2022/05/19 02:32:54;;;;;;;4.95;3.22;;;;;;;17.02;99.78;100299.88;4972631;28;20038;-70
2022/05/19 02:35:20;;;;;;;6.28;3.30;;;;;;;17.02;100.00;100299.88;4972811;28;20030;-70
2022/05/19 02:37:46;;;;;;;5.97;3.33;;;;;;;17.04;100.00;100307.84;4971620;28;20421;-69
2022/05/19 02:40:14;;;;;;;8.85;3.30;;;;;;;16.85;100.00;100307.13;4984107;28;20026;-70
2022/05/19 02:42:40;;;;;;;6.70;3.20;;;;;;;16.93;100.00;100318.31;4991912;28;20097;-71
2022/05/19 02:45:06;;;;;;;5.63;3.50;;;;;;;16.90;100.00;100318.50;4991554;28;20038;-69
2022/05/19 02:47:31;;;;;;;5.47;3.50;;;;;;;16.84;100.00;100318.78;4971721;28;20109;-70
2022/05/19 02:49:57;;;;;;;6.43;3.78;;;;;;;16.83;100.00;100322.44;4970512;28;20022;-69
2022/05/19 02:52:22;;;;;;;6.40;3.75;;;;;;;16.81;100.00;100329.72;4969811;28;20019;-68
2022/05/19 02:54:48;;;;;;;6.40;3.55;;;;;;;16.82;100.00;100321.56;4969020;28;20026;-69
2022/05/19 02:57:13;;;;;;;6.28;3.92;;;;;;;16.83;100.00;100322.44;4978943;28;20486;-69
2022/05/19 02:59:39;;;;;;;8.38;3.90;;;;;;;16.77;100.00;100322.78;4989446;28;20041;-69
2022/05/19 03:02:04;;;;;;;8.02;3.33;;;;;;;16.68;100.00;100323.25;4991172;28;20029;-69
2022/05/19 03:04:30;;;;;;;9.77;4.30;;;;;;;16.61;100.00;100317.34;4991643;28;20027;-69
2022/05/19 03:06:55;;;;;;;7.03;3.55;;;;;;;16.64;100.00;100318.97;4991625;28;20503;-68
2022/05/19 03:09:23;;;;;;;5.85;3.22;;;;;;;16.60;100.00;100325.47;4991365;28;20032;-68
2022/05/19 03:11:49;;;;;;;6.13;3.38;;;;;;;16.54;100.00;100326.66;4990979;28;20030;-68
2022/05/19 03:14:14;;;;;;;8.23;3.67;;;;;;;16.57;100.00;100325.63;4992602;28;20041;-68
2022/05/19 03:16:41;;;;;;;10.73;3.97;;;;;;;16.56;100.00;100324.75;4979679;28;20475;-69
2022/05/19 03:19:06;;;;;;;7.05;3.67;;;;;;;16.45;100.00;100315.47;4956257;29;20027;-68
2022/05/19 03:21:32;;;;;;;6.20;3.88;;;;;;;16.53;100.00;100318.66;4954881;29;20038;-69
2022/05/19 03:23:57;;;;;;;5.85;3.90;;;;;;;16.59;100.00;100323.75;4960740;28;20125;-69
2022/05/19 03:26:23;;;;;;;7.18;3.88;;;;;;;16.59;100.00;100315.69;4975722;28;20126;-70
2022/05/19 03:28:48;;;;;;;8.05;4.40;;;;;;;16.59;100.00;100321.06;4975551;28;20422;-70
2022/05/19 03:31:14;;;;;;;5.97;3.70;;;;;;;16.59;100.00;100318.38;4974226;28;20085;-70
2022/05/19 03:33:40;;;;;;;5.80;3.65;;;;;;;16.52;100.00;100314.25;4975708;28;20387;-70
2022/05/19 03:36:06;;;;;;;5.68;3.40;;;;;;;16.45;100.00;100302.97;4973991;28;20543;-69
2022/05/19 03:38:32;;;;;;;7.82;3.13;;;;;;;16.43;100.00;100317.38;4974942;28;20022;-69
2022/05/19 03:40:58;;;;;;;6.57;3.65;;;;;;;16.34;100.00;100301.75;4975087;28;20115;-69
2022/05/19 03:43:23;;;;;;;5.03;3.38;;;;;;;16.39;100.00;100310.44;4975403;28;20106;-69
2022/05/19 03:45:49;;;;;;;6.53;3.58;;;;;;;16.29;100.00;100309.19;4973460;28;20026;-69
2022/05/19 03:48:14;;;;;;;7.45;3.92;;;;;;;16.27;100.00;100316.44;4975161;28;20068;-69
2022/05/19 03:50:44;;;;;;;7.03;3.88;;;;;;;16.19;100.00;100324.00;4973963;28;20030;-69
2022/05/19 03:53:10;;;;;;;6.50;4.18;;;;;;;16.22;100.00;100326.53;4975120;28;20027;-69
2022/05/19 03:55:35;;;;;;;6.72;4.00;;;;;;;16.20;100.00;100321.25;4974766;28;20061;-69
2022/05/19 03:58:01;;;;;;;6.15;3.42;;;;;;;16.19;100.00;100327.56;4991412;28;20029;-69
2022/05/19 04:00:26;;;;;;;6.95;3.90;;;;;;;16.23;100.00;100315.72;4994091;28;20029;-69
2022/05/19 04:02:52;;;;;;;7.35;4.13;;;;;;;16.24;100.00;100327.31;4994425;28;20018;-69
2022/05/19 04:05:17;;;;;;;11.52;4.00;;;;;;;16.23;100.00;100304.09;4992765;28;20026;-69
2022/05/19 04:07:43;;;;;;;5.93;4.07;;;;;;;16.37;100.00;100329.31;4993477;28;20046;-69
2022/05/19 04:10:11;;;;;;;6.78;3.78;;;;;;;16.37;100.00;100331.13;4993965;28;20061;-69
2022/05/19 04:12:37;;;;;;;5.32;3.70;;;;;;;16.27;100.00;100337.91;4994253;28;20030;-69
2022/05/19 04:15:05;;;;;;;8.48;4.25;;;;;;;16.27;100.00;100340.59;4976094;28;20490;-69
2022/05/19 04:17:33;;;;;;;5.35;4.00;;;;;;;16.33;100.00;100332.22;4961116;28;20114;-68
2022/05/19 04:20:00;;;;;;;7.22;3.45;;;;;;;16.30;100.00;100333.25;4971435;28;20522;-68
2022/05/19 04:22:26;;;;;;;6.70;3.95;;;;;;;16.32;100.00;100333.19;4973365;28;20029;-68
2022/05/19 04:24:51;;;;;;;5.95;3.65;;;;;;;16.31;100.00;100320.72;4972171;28;20022;-68
2022/05/19 04:27:17;;;;;;;7.30;4.15;;;;;;;16.40;100.00;100339.00;4971253;28;20030;-69
2022/05/19 04:29:42;;;;;;;5.60;3.40;;;;;;;16.34;100.00;100328.59;4973078;28;20034;-69
2022/05/19 04:32:08;;;;;;;6.45;3.90;;;;;;;16.49;100.00;100343.97;4975125;28;20026;-69
2022/05/19 04:34:33;;;;;;;6.60;3.88;;;;;;;16.51;100.00;100347.41;4972764;28;20026;-69
2022/05/19 04:36:59;;;;;;;8.55;4.03;;;;;;;16.62;100.00;100351.28;4973698;28;20031;-69
2022/05/19 04:39:24;;;;;;;7.05;4.05;;;;;;;16.74;100.00;100356.03;4974368;28;20036;-70
2022/05/19 04:41:49;;;;;;;6.15;3.80;;;;;;;16.87;100.00;100356.25;4973936;28;20434;-68
2022/05/19 04:44:18;;;;;;;6.60;3.97;;;;;;;16.97;100.00;100363.75;4972190;28;20118;-70
2022/05/19 04:46:43;;;;;;;6.55;4.35;;;;;;;17.00;100.00;100341.22;4972200;28;20062;-69
2022/05/19 04:49:09;;;;;;;5.80;3.75;;;;;;;17.16;100.00;100357.38;4974929;28;20089;-69
2022/05/19 04:51:34;;;;;;;9.15;5.28;;;;;;;17.21;100.00;100350.81;4972603;28;20467;-69
2022/05/19 04:54:00;;;;;;;7.60;4.45;;;;;;;17.39;100.00;100352.50;4972372;28;20027;-69
2022/05/19 04:56:25;;;;;;;7.47;4.15;;;;;;;17.64;100.00;100363.69;4975824;28;20065;-70
2022/05/19 04:58:51;;;;;;;11.65;4.40;;;;;;;17.79;100.00;100362.78;4992784;28;20040;-69
2022/05/19 05:01:16;;;;;;;6.63;4.07;;;;;;;17.87;100.00;100368.63;4989745;28;20029;-69
2022/05/19 05:03:41;;;;;;;6.60;4.20;;;;;;;17.99;99.55;100362.53;4992149;28;20022;-69
2022/05/19 05:06:07;;;;;;;8.85;4.68;;;;;;;18.07;98.79;100359.41;4974276;28;20022;-69
2022/05/19 05:08:32;;;;;;;7.60;3.70;;;;;;;18.18;98.14;100360.53;4992164;28;20065;-69
2022/05/19 05:10:57;;;;;;;6.32;4.20;;;;;;;18.44;97.41;100363.53;4991923;28;20026;-69
2022/05/19 05:13:23;;;;;;;7.88;4.20;;;;;;;18.59;96.49;100378.78;4990012;28;20091;-71
2022/05/19 05:15:48;;;;;;;8.38;4.90;;;;;;;18.82;94.70;100381.84;4986063;28;20030;-71
2022/05/19 05:18:14;;;;;;;11.27;4.50;;;;;;;19.16;92.88;100391.47;4954341;28;20031;-71
2022/05/19 05:20:42;;;;;;;8.65;4.32;;;;;;;19.27;90.68;100388.97;4951351;29;20027;-71
2022/05/19 05:23:08;;;;;;;10.70;5.00;;;;;;;19.37;89.37;100395.56;4951619;29;20169;-71
2022/05/19 05:25:33;;;;;;;9.60;4.55;;;;;;;19.49;88.81;100397.47;4951512;29;20198;-71
2022/05/19 05:27:59;;;;;;;9.98;4.90;;;;;;;19.65;88.92;100395.56;4951703;29;20114;-71
2022/05/19 05:30:25;;;;;;;9.35;4.70;;;;;;;19.83;87.42;100391.69;4953367;29;20040;-71
2022/05/19 05:32:51;;;;;;;8.80;4.97;;;;;;;19.98;86.12;100393.38;4967331;28;20133;-71
2022/05/19 05:35:17;;;;;;;8.20;4.35;;;;;;;20.22;85.02;100396.31;4972461;28;20026;-71
2022/05/19 05:37:43;;;;;;;8.73;4.30;;;;;;;20.35;83.88;100381.03;4972386;28;20022;-71
2022/05/19 05:40:10;;;;;;;8.15;4.80;;;;;;;20.49;83.83;100381.84;4966369;28;20042;-71
2022/05/19 05:42:37;;;;;;;8.85;4.57;;;;;;;20.67;82.74;100391.41;4967881;28;20039;-71
2022/05/19 05:45:05;;;;;;;8.15;4.22;;;;;;;20.79;81.84;100385.16;4970800;28;20035;-71
2022/05/19 05:47:30;;;;;;;9.35;4.68;;;;;;;20.98;81.71;100392.03;4967558;28;20051;-71
2022/05/19 05:49:56;;;;;;;10.23;4.43;;;;;;;21.13;80.79;100393.69;4964100;28;20520;-71
2022/05/19 05:52:21;;;;;;;9.88;4.35;;;;;;;21.20;81.27;100381.47;4951320;29;20468;-71
2022/05/19 05:54:47;;;;;;;10.77;4.55;;;;;;;21.26;80.81;100383.75;4959354;28;20390;-71
2022/05/19 05:57:14;;;;;;;7.68;4.53;;;;;;;21.36;80.17;100411.88;4981661;28;20548;-71
2022/05/19 05:59:40;;;;;;;6.03;4.22;;;;;;;21.43;80.12;100413.19;4991329;28;20545;-71
2022/05/19 06:02:06;;;;;;;9.50;5.38;;;;;;;21.52;79.75;100409.81;4973388;28;20239;-71
2022/05/19 06:04:32;;;;;;;8.80;5.38;;;;;;;21.67;80.12;100404.19;4954617;28;20034;-71
2022/05/19 06:06:57;;;;;;;7.18;4.85;;;;;;;21.86;78.36;100414.59;4954649;28;20038;-71
2022/05/19 06:09:23;;;;;;;8.98;4.70;;;;;;;22.05;77.50;100415.84;4971730;28;20027;-71
2022/05/19 06:11:48;;;;;;;10.25;4.45;;;;;;;22.17;77.10;100419.50;4971614;28;20030;-71
2022/05/19 06:14:14;;;;;;;9.55;4.78;;;;;;;22.23;76.38;100423.59;4972252;28;20114;-71
2022/05/19 06:16:39;;;;;;;7.15;4.50;;;;;;;22.41;75.33;100417.66;4952345;28;20114;-71
2022/05/19 06:19:05;;;;;;;7.50;5.05;;;;;;;22.56;73.52;100416.56;4955191;28;20610;-71
2022/05/19 06:21:31;;;;;;;7.28;4.53;;;;;;;22.60;72.48;100406.34;4973596;28;20038;-71
2022/05/19 06:23:56;;;;;;;6.72;4.88;;;;;;;22.85;72.10;100409.78;4971509;28;20161;-71
2022/05/19 06:26:21;;;;;;;9.38;5.40;;;;;;;23.00;72.48;100407.72;4971231;28;20580;-69
2022/05/19 06:28:47;;;;;;;10.32;4.65;;;;;;;23.18;70.64;100414.44;4971459;28;20034;-70
2022/05/19 06:31:13;;;;;;;9.20;4.45;;;;;;;23.24;68.78;100428.38;4971512;28;20110;-70
2022/05/19 06:33:38;;;;;;;7.75;4.07;;;;;;;23.28;67.94;100427.22;4954353;28;20082;-70
2022/05/19 06:36:05;;;;;;;7.03;4.15;;;;;;;23.39;67.98;100429.09;4974126;28;20023;-70
2022/05/19 06:38:31;;;;;;;6.47;4.22;;;;;;;23.36;67.55;100435.63;4971469;28;20066;-70
2022/05/19 06:42:00;;;;;;;7.63;4.18;;;;;;;23.48;67.90;100425.63;4971046;28;20031;-69
2022/05/19 06:43:44;;;;;;;7.70;3.53;;;;;;;23.70;67.13;100430.22;4971216;28;20501;-69
2022/05/19 06:46:10;;;;;;;8.80;4.47;;;;;;;23.96;66.52;100427.16;4971416;28;20034;-69
2022/05/19 06:48:35;;;;;;;5.78;3.70;;;;;;;24.08;65.51;100438.91;4973379;28;20072;-69
2022/05/19 06:51:01;;;;;;;8.07;3.70;;;;;;;24.31;65.35;100435.16;4974488;28;20058;-68
2022/05/19 06:53:27;;;;;;;17.00;9.38;;;;;;;24.61;64.26;100432.63;4975324;28;20055;-69
2022/05/19 06:55:53;;;;;;;8.63;5.30;;;;;;;24.83;62.63;100435.28;4977826;28;20113;-69
2022/05/19 06:58:18;;;;;;;6.75;3.35;;;;;;;25.02;62.00;100434.59;4957431;28;20469;-69
2022/05/19 07:00:44;;;;;;;6.65;3.90;;;;;;;25.28;61.65;100438.66;4975183;28;20026;-69
2022/05/19 07:03:10;;;;;;;5.95;3.08;;;;;;;25.52;61.23;100431.97;4963019;28;20039;-69
2022/05/19 07:05:37;;;;;;;5.65;3.38;;;;;;;25.76;59.24;100439.84;4956256;28;20019;-69
2022/05/19 07:08:04;;;;;;;8.35;3.95;;;;;;;26.02;58.25;100429.38;4969841;28;20660;-69
2022/05/19 07:10:29;;;;;;;6.43;3.28;;;;;;;26.29;56.94;100430.50;4969492;28;20023;-68
2022/05/19 07:12:56;;;;;;;7.00;3.08;;;;;;;26.50;55.86;100425.78;4974257;28;20041;-68
2022/05/19 07:15:22;;;;;;;8.50;3.17;;;;;;;26.80;55.41;100446.69;4975013;28;20058;-69
2022/05/19 07:17:48;;;;;;;6.57;3.53;;;;;;;26.99;55.09;100439.38;4962168;28;20065;-69
2022/05/19 07:22:57;;;;;;;5.35;2.90;;;;;;;27.58;49.70;100432.88;4965694;28;20514;-68
2022/05/19 07:25:23;;;;;;;6.63;3.28;;;;;;;27.94;49.83;100424.69;4963642;28;20031;-68
2022/05/19 07:27:48;;;;;;;5.00;2.90;;;;;;;27.87;47.62;100409.91;4974545;28;20074;-67
2022/05/19 07:30:14;;;;;;;6.78;2.83;;;;;;;27.95;48.11;100428.31;4969728;28;20023;-67
2022/05/19 07:32:40;;;;;;;5.85;2.78;;;;;;;28.06;48.70;100430.84;4972339;28;20031;-67
2022/05/19 07:35:08;;;;;;;5.43;2.78;;;;;;;28.14;47.71;100440.03;4972990;28;20035;-67
2022/05/19 07:37:34;;;;;;;5.03;2.78;;;;;;;28.44;47.02;100442.47;4972783;28;20022;-67
2022/05/19 07:39:59;;;;;;;5.13;2.88;;;;;;;28.71;46.46;100427.91;4972476;28;20027;-67
2022/05/19 07:42:25;;;;;;;4.57;2.25;;;;;;;28.88;45.29;100439.91;4972650;28;20023;-67
2022/05/19 07:44:51;;;;;;;5.72;2.60;;;;;;;29.17;46.07;100446.00;4970731;28;20041;-67
2022/05/19 07:47:17;;;;;;;5.25;2.30;;;;;;;29.25;44.96;100448.81;4974486;28;20101;-67
2022/05/19 07:49:43;;;;;;;4.32;2.13;;;;;;;29.23;45.47;100439.91;4973704;28;20038;-67
2022/05/19 07:52:09;;;;;;;5.15;2.03;;;;;;;29.43;45.64;100447.78;4973299;28;20030;-67
2022/05/19 07:54:35;;;;;;;3.13;1.83;;;;;;;29.43;45.52;100435.94;4973118;28;20082;-67
2022/05/19 07:57:01;;;;;;;4.78;1.90;;;;;;;29.87;44.63;100440.41;4973009;28;20031;-67
2022/05/19 07:59:26;;;;;;;3.75;2.25;;;;;;;30.11;43.41;100450.66;4972367;28;20776;-67
2022/05/19 08:01:53;;;;;;;8.55;2.40;;;;;;;30.30;44.14;100443.06;4974500;28;20030;-67
2022/05/19 08:04:20;;;;;;;3.42;2.05;;;;;;;30.37;44.99;100452.34;4974307;28;20034;-67
2022/05/19 08:06:47;;;;;;;4.28;1.90;;;;;;;30.51;44.18;100446.22;4974427;28;20038;-67
2022/05/19 08:11:56;;;;;;;3.90;2.30;;;;;;;30.73;43.19;100439.25;4974779;28;20096;-68
2022/05/19 08:17:10;;;;;;;6.30;2.22;;;;;;;31.11;41.51;100429.53;4966697;28;20054;-68
2022/05/19 08:19:42;;;;;;;3.95;2.20;;;;;;;31.48;39.61;100446.44;4953378;29;20023;-68
2022/05/19 08:22:08;;;;;;;4.75;2.00;;;;;;;31.58;40.09;100444.34;4953303;29;20030;-67
2022/05/19 08:24:34;;;;;;;4.00;1.90;;;;;;;31.55;39.51;100447.47;4951932;29;20027;-67
2022/05/19 08:27:00;;;;;;;5.25;2.33;;;;;;;31.57;40.82;100445.38;4951482;29;20038;-67
2022/05/19 08:29:26;;;;;;;3.67;2.05;;;;;;;31.28;40.34;100434.03;4968125;28;20035;-68
2022/05/19 08:31:52;;;;;;;4.43;2.40;;;;;;;31.32;41.18;100446.44;4969427;28;20023;-67
2022/05/19 08:34:18;;;;;;;3.33;2.00;;;;;;;31.11;40.14;100435.03;4971582;28;20394;-68
2022/05/19 08:36:44;;;;;;;4.90;2.20;;;;;;;30.92;40.73;100438.13;4971533;28;20023;-67
2022/05/19 08:39:11;;;;;;;3.70;1.92;;;;;;;30.96;41.19;100431.22;4975128;28;20105;-67
2022/05/19 08:41:38;;;;;;;3.92;1.98;;;;;;;31.15;40.62;100439.16;4973954;28;20158;-66
2022/05/19 08:44:24;;;;;;;3.55;2.08;;;;;;;31.29;40.63;100442.09;4973393;28;20031;-67
2022/05/19 08:46:52;;;;;;;4.93;2.38;;;;;;;31.77;41.77;100443.97;4973596;28;20023;-67
2022/05/19 08:49:47;;;;;;;9.02;2.40;;;;;;;32.19;39.49;100439.09;4973679;28;20031;-66
2022/05/19 08:52:25;;;;;;;3.60;2.28;;;;;;;32.81;39.88;100432.59;4973265;28;20486;-66
2022/05/19 08:54:55;;;;;;;4.80;2.30;;;;;;;33.08;37.89;100422.97;4972275;28;20054;-67
2022/05/19 08:57:25;;;;;;;3.78;2.35;;;;;;;33.53;38.18;100433.97;4974366;28;20034;-67
2022/05/19 08:59:57;;;;;;;5.82;3.33;;;;;;;34.01;37.17;100436.25;4971985;28;20126;-67
2022/05/19 09:02:36;;;;;;;4.30;2.00;;;;;;;33.99;36.48;100427.28;4971899;28;20027;-67
2022/05/19 09:05:30;;;;;;;7.43;2.33;;;;;;;34.26;36.05;100429.41;4972133;28;20378;-68
2022/05/19 09:08:24;;;;;;;3.72;2.10;;;;;;;33.77;36.03;100433.75;4971390;28;20502;-68
2022/05/19 09:11:18;;;;;;;4.38;2.83;;;;;;;34.00;37.86;100417.13;4972505;28;20062;-68
2022/05/19 09:14:21;;;;;;;4.43;1.85;;;;;;;34.00;36.33;100417.13;4955149;28;20038;-68
2022/05/19 09:16:47;;;;;;;3.03;2.00;;;;;;;33.83;36.85;100407.25;4965767;28;20106;-69
2022/05/19 09:19:30;;;;;;;3.35;1.98;;;;;;;33.53;37.71;100413.78;4952523;29;20031;-69
2022/05/19 09:22:02;;;;;;;4.47;2.25;;;;;;;33.67;37.02;100402.78;4952368;29;20483;-67
2022/05/19 09:24:29;;;;;;;4.32;2.15;;;;;;;33.48;37.28;100403.31;4953053;29;20061;-70
2022/05/19 09:26:57;;;;;;;3.88;2.25;;;;;;;33.38;38.18;100401.84;4966125;28;20041;-69
2022/05/19 09:29:40;;;;;;;6.45;2.20;;;;;;;33.36;38.08;100400.13;4972997;28;20470;-69
2022/05/19 09:32:06;;;;;;;4.20;2.55;;;;;;;33.28;38.55;100402.94;4955423;28;20093;-69
2022/05/19 09:34:52;;;;;;;4.28;2.20;;;;;;;33.65;37.42;100392.97;4972769;28;20419;-69
2022/05/19 09:37:28;;;;;;;5.47;2.10;;;;;;;33.07;38.72;100389.00;4972469;28;20034;-68
2022/05/19 09:40:07;;;;;;;4.45;1.77;;;;;;;33.18;38.54;100391.31;4972885;28;20046;-68
2022/05/19 09:42:48;;;;;;;7.32;2.47;;;;;;;33.54;38.50;100402.59;4970659;28;20051;-68
2022/05/19 09:45:14;;;;;;;4.40;2.53;;;;;;;34.07;37.36;100393.22;4953026;28;20037;-69
2022/05/19 09:47:42;;;;;;;3.85;2.15;;;;;;;34.43;35.95;100388.63;4970595;28;20059;-67
2022/05/19 09:50:08;;;;;;;4.13;2.10;;;;;;;34.32;36.21;100386.31;4970583;28;20097;-68
2022/05/19 09:52:33;;;;;;;4.63;2.25;;;;;;;34.50;37.11;100389.53;4970723;28;20031;-68
2022/05/19 09:55:04;;;;;;;5.13;2.63;;;;;;;34.18;36.23;100378.91;4970514;28;20343;-67
2022/05/19 09:57:35;;;;;;;5.13;2.67;;;;;;;33.95;36.63;100381.81;4954478;28;20029;-68
2022/05/19 10:00:06;;;;;;;5.43;2.60;;;;;;;33.71;38.01;100375.69;4972252;28;20430;-68
2022/05/19 10:02:38;;;;;;;7.97;2.22;;;;;;;34.29;38.03;100367.38;4972168;28;20550;-68
2022/05/19 10:05:19;;;;;;;4.37;2.20;;;;;;;34.64;35.89;100371.22;4953181;29;20026;-69
2022/05/19 10:07:49;;;;;;;7.22;2.10;;;;;;;35.00;34.74;100375.69;4953093;29;20495;-68
2022/05/19 10:10:27;;;;;;;8.50;2.17;;;;;;;34.90;34.41;100360.47;4952974;29;20078;-68
2022/05/19 10:12:59;;;;;;;4.50;2.30;;;;;;;35.47;33.66;100359.31;4953014;29;20114;-68
2022/05/19 10:15:34;;;;;;;4.60;2.35;;;;;;;35.71;32.94;100352.44;4954081;28;20106;-68
2022/05/19 10:18:30;;;;;;;6.50;3.05;;;;;;;35.83;33.80;100358.28;4958227;28;20035;-68
2022/05/19 10:21:10;;;;;;;4.15;2.30;;;;;;;35.49;33.88;100359.97;4952814;29;20093;-67
2022/05/19 10:23:58;;;;;;;3.72;1.85;;;;;;;35.70;32.72;100361.81;4965921;28;20494;-67
2022/05/19 10:26:41;;;;;;;5.57;2.00;;;;;;;36.22;33.47;100347.41;4972402;28;20105;-67
2022/05/19 10:32:19;;;;;;;2.37;1.30;;;;;;;37.37;31.27;100362.88;4952808;29;20038;-67
2022/05/19 10:35:08;;;;;;;4.10;1.60;;;;;;;37.05;29.80;100364.56;4952702;29;20289;-67
2022/05/19 10:37:53;;;;;;;3.05;1.58;;;;;;;37.21;30.72;100353.03;4953120;29;20479;-67
2022/05/19 10:40:38;;;;;;;6.07;1.75;;;;;;;36.81;31.25;100354.94;4953125;29;20030;-68
2022/05/19 10:43:08;;;;;;;3.40;1.70;;;;;;;36.94;30.21;100340.22;4951375;29;20118;-68
2022/05/19 10:45:39;;;;;;;8.23;1.40;;;;;;;37.39;30.22;100347.75;4954748;28;20027;-67
2022/05/19 10:48:15;;;;;;;3.03;1.60;;;;;;;37.70;30.12;100347.94;4974087;28;20073;-68
2022/05/19 10:51:27;;;;;;;7.35;2.40;;;;;;;37.60;29.19;100347.50;4971842;28;20027;-68
2022/05/19 10:54:07;;;;;;;4.30;2.10;;;;;;;38.08;30.79;100337.78;4961617;28;20094;-68
2022/05/19 10:56:58;;;;;;;3.25;1.70;;;;;;;37.88;27.99;100347.25;4952560;29;20038;-68
2022/05/19 11:00:17;;;;;;;3.22;2.03;;;;;;;38.00;28.29;100324.13;4953189;29;20123;-69
2022/05/19 11:03:02;;;;;;;4.03;2.65;;;;;;;38.33;28.00;100328.72;4900199;29;20043;-68
2022/05/19 11:05:30;;;;;;;5.00;2.00;;;;;;;38.56;27.21;100338.22;4952525;29;20039;-68
2022/05/19 11:08:03;;;;;;;4.90;1.70;;;;;;;37.67;27.60;100325.25;4952704;29;20171;-68
2022/05/19 11:10:51;;;;;;;5.68;1.67;;;;;;;37.09;29.55;100321.44;4952257;29;20034;-68
2022/05/19 11:13:16;;;;;;;4.05;1.77;;;;;;;36.46;29.58;100316.44;4949860;29;20129;-68
2022/05/19 11:16:14;;;;;;;3.22;1.63;;;;;;;35.32;30.08;100319.78;4954301;28;20102;-68
2022/05/19 11:18:48;;;;;;;3.47;1.77;;;;;;;34.92;32.18;100311.34;4902285;28;20039;-68
2022/05/19 11:21:20;;;;;;;3.65;1.85;;;;;;;35.01;32.89;100308.25;4971191;28;20143;-68
2022/05/19 11:24:22;;;;;;;3.00;1.77;;;;;;;35.27;32.35;100315.91;4971462;28;20490;-68
2022/05/19 11:26:59;;;;;;;3.33;1.90;;;;;;;35.59;32.02;100309.78;4971785;28;20030;-68
2022/05/19 11:29:46;;;;;;;4.85;1.83;;;;;;;35.72;32.03;100316.25;4971408;28;20038;-68
2022/05/19 11:32:29;;;;;;;5.90;1.95;;;;;;;36.29;31.78;100315.06;4971805;28;20057;-68
2022/05/19 11:35:03;;;;;;;3.95;2.00;;;;;;;36.31;31.19;100299.09;4972684;28;20105;-68
2022/05/19 11:37:34;;;;;;;5.18;2.20;;;;;;;37.40;30.07;100313.34;4974990;28;20034;-68
2022/05/19 11:40:30;;;;;;;6.32;2.10;;;;;;;38.02;30.41;100313.63;4974594;28;20050;-68
2022/05/19 11:43:09;;;;;;;5.97;2.20;;;;;;;38.25;29.88;100312.28;4974902;28;20064;-69
2022/05/19 11:45:37;;;;;;;6.85;2.10;;;;;;;38.57;28.75;100297.38;4974723;28;20085;-68
2022/05/19 11:57:59;;;;;;;11.70;1.90;;;;;;;38.54;28.65;100286.66;4972553;28;20395;-69
2022/05/19 12:00:37;;;;;;;5.78;1.80;;;;;;;38.87;28.40;100295.66;4974866;28;20050;-69
2022/05/19 12:03:20;;;;;;;8.48;2.10;;;;;;;38.05;28.02;100296.53;4974429;28;20030;-69